Santo Domingo, Dominican Republic
Current Conditions -  °F | °C
As of 3:00 PM on Sunday 21 Dec 2014 (Local Time) from MDSD Reporting Station
Moderate Rain Moderate Rain  
Wind Chill: 82°   Ceiling: 1800
Heat Index: 89°   Visibility: 5mi
Dew Point: 75°   Wind: 12mph
Humidity: 79%   Direction: 60°ENE
Pressure: 29.97"   Gusts: NA
Location:  18.48°N, 69.91°W
Report Text: MDSD 211900Z 06010KT 8000 VCRA BKN018 28/24 Q1015 TEMPO 7000 RA
Loading
Personal Weather Stations






























Interactive Weather Map New forecast layout! Learn more

10-Day Weather Forecast

Advertisements
Track Severe Weather on mobile